createdAt,value
2016-11-04T00:00:48.236Z,7.59
2016-11-04T00:01:48.531Z,7.63
2016-11-04T00:02:48.203Z,7.58
2016-11-04T00:03:48.501Z,7.56
2016-11-04T00:04:48.179Z,7.55
2016-11-04T00:05:48.757Z,7.53
2016-11-04T00:06:48.456Z,7.53
2016-11-04T00:07:48.426Z,7.56
2016-11-04T00:08:48.101Z,7.49
2016-11-04T00:09:48.080Z,7.55
2016-11-04T00:10:48.069Z,7.55
2016-11-04T00:11:48.050Z,7.5
2016-11-04T00:12:48.031Z,7.55
2016-11-04T00:13:48.052Z,7.5
2016-11-04T00:14:48.034Z,7.5
2016-11-04T00:15:48.021Z,7.49
2016-11-04T00:16:48.277Z,7.5
2016-11-04T00:17:47.948Z,7.44
2016-11-04T00:18:48.239Z,7.47
2016-11-04T00:19:48.228Z,7.44
2016-11-04T00:20:47.902Z,7.58
2016-11-04T00:21:47.889Z,7.5
2016-11-04T00:22:47.865Z,7.53
2016-11-04T00:23:47.849Z,7.55
2016-11-04T00:24:48.144Z,7.52
2016-11-04T00:25:47.809Z,7.55
2016-11-04T00:26:47.796Z,7.6
2016-11-04T00:27:48.094Z,7.62
2016-11-04T00:28:47.764Z,7.62
2016-11-04T00:29:47.748Z,7.59
2016-11-04T00:30:47.767Z,7.63
2016-11-04T00:31:47.711Z,7.63
2016-11-04T00:32:47.687Z,7.66
2016-11-04T00:33:47.673Z,7.69
2016-11-04T00:34:47.657Z,7.77
2016-11-04T00:35:47.646Z,7.69
2016-11-04T00:36:47.661Z,7.75
2016-11-04T00:37:47.607Z,7.78
2016-11-04T00:38:47.589Z,7.72
2016-11-04T00:39:47.886Z,7.71
2016-11-04T00:40:47.561Z,7.75
2016-11-04T00:41:47.536Z,7.72
2016-11-04T00:42:47.526Z,7.71
2016-11-04T00:43:47.506Z,7.71
2016-11-04T00:44:47.492Z,7.82
2016-11-04T00:45:47.477Z,7.72
2016-11-04T00:46:47.455Z,7.74
2016-11-04T00:47:47.438Z,7.74
2016-11-04T00:48:47.416Z,7.72
2016-11-04T00:49:47.400Z,7.71
2016-11-04T00:50:47.385Z,7.72
2016-11-04T00:51:47.369Z,7.69
2016-11-04T00:52:47.350Z,7.75
2016-11-04T00:53:47.338Z,7.62
2016-11-04T00:54:47.321Z,7.6
2016-11-04T00:55:47.299Z,7.62
2016-11-04T00:56:47.286Z,7.62
2016-11-04T00:57:47.268Z,7.6
2016-11-04T00:58:47.251Z,7.5
2016-11-04T00:59:47.230Z,7.49
2016-11-04T01:00:47.218Z,7.49
2016-11-04T01:01:47.198Z,7.55
2016-11-04T01:02:47.499Z,7.63
2016-11-04T01:03:47.476Z,7.56
2016-11-04T01:04:47.147Z,7.58
2016-11-04T01:05:47.133Z,7.56
2016-11-04T01:06:47.429Z,7.62
2016-11-04T01:07:47.095Z,7.56
2016-11-04T01:08:47.393Z,7.56
2016-11-04T01:09:47.415Z,7.53
2016-11-04T01:10:47.052Z,7.59
2016-11-04T01:11:47.037Z,7.56
2016-11-04T01:12:47.012Z,7.52
2016-11-04T01:13:47.000Z,7.42
2016-11-04T01:14:46.983Z,7.58
2016-11-04T01:15:46.960Z,7.56
2016-11-04T01:16:46.942Z,7.55
2016-11-04T01:17:46.922Z,7.53
2016-11-04T01:18:46.911Z,7.5
2016-11-04T01:19:46.890Z,7.45
2016-11-04T01:20:46.874Z,7.55
2016-11-04T01:21:46.859Z,7.56
2016-11-04T01:22:46.836Z,7.47
2016-11-04T01:23:46.828Z,7.49
2016-11-04T01:24:46.811Z,7.5
2016-11-04T01:25:46.792Z,7.49
2016-11-04T01:26:47.085Z,7.44
2016-11-04T01:27:46.750Z,7.52
2016-11-04T01:28:46.735Z,7.55
2016-11-04T01:29:46.724Z,7.52
2016-11-04T01:30:46.708Z,7.55
2016-11-04T01:31:46.686Z,7.56
2016-11-04T01:32:46.664Z,7.53
2016-11-04T01:33:46.649Z,7.56
2016-11-04T01:34:46.951Z,7.49
2016-11-04T01:35:46.615Z,7.52
2016-11-04T01:36:46.602Z,7.44
2016-11-04T01:37:46.897Z,7.53
2016-11-04T01:38:46.562Z,7.49
2016-11-04T01:39:46.863Z,7.53
2016-11-04T01:40:46.559Z,7.52
2016-11-04T01:41:46.514Z,7.53
2016-11-04T01:42:46.495Z,7.52
2016-11-04T01:43:46.477Z,7.59
2016-11-04T01:44:46.461Z,7.53
2016-11-04T01:45:46.449Z,7.56
2016-11-04T01:46:46.748Z,7.58
2016-11-04T01:47:46.411Z,7.56
2016-11-04T01:48:46.398Z,7.58
2016-11-04T01:49:46.375Z,7.56
2016-11-04T01:50:46.363Z,7.56
2016-11-04T01:51:46.660Z,7.56
2016-11-04T01:52:46.323Z,7.58
2016-11-04T01:53:46.312Z,7.58
2016-11-04T01:54:46.608Z,7.62
2016-11-04T01:55:46.278Z,7.55
2016-11-04T01:56:46.256Z,7.69
2016-11-04T01:57:46.236Z,7.62
2016-11-04T01:58:46.245Z,7.67
2016-11-04T01:59:46.206Z,7.6
2016-11-04T02:00:46.213Z,7.55
2016-11-04T02:01:46.520Z,7.6
2016-11-04T02:02:46.184Z,7.62
2016-11-04T02:03:46.447Z,7.63
2016-11-04T02:04:46.125Z,7.59
2016-11-04T02:05:46.418Z,7.6
2016-11-04T02:06:46.137Z,7.59
2016-11-04T02:07:46.075Z,7.62
2016-11-04T02:08:46.369Z,7.55
2016-11-04T02:09:46.039Z,7.53
2016-11-04T02:10:46.019Z,7.63
2016-11-04T02:11:46.002Z,7.63
2016-11-04T02:12:45.979Z,7.63
2016-11-04T02:13:45.971Z,7.66
2016-11-04T02:14:46.268Z,7.55
2016-11-04T02:15:45.931Z,7.58
2016-11-04T02:16:45.915Z,7.55
2016-11-04T02:17:45.899Z,7.56
2016-11-04T02:18:46.194Z,7.56
2016-11-04T02:19:45.862Z,7.62
2016-11-04T02:20:46.159Z,7.62
2016-11-04T02:21:46.150Z,7.6
2016-11-04T02:22:45.814Z,7.63
2016-11-04T02:23:46.433Z,7.62
2016-11-04T02:24:46.092Z,7.56
2016-11-04T02:25:45.756Z,7.62
2016-11-04T02:26:45.748Z,7.62
2016-11-04T02:27:45.728Z,7.6
2016-11-04T02:28:45.710Z,7.6
2016-11-04T02:29:46.014Z,7.6
2016-11-04T02:30:45.675Z,7.6
2016-11-04T02:31:45.970Z,7.6
2016-11-04T02:32:45.637Z,7.62
2016-11-04T02:33:45.626Z,7.63
2016-11-04T02:34:45.607Z,7.62
2016-11-04T02:35:46.219Z,7.58
2016-11-04T02:36:45.571Z,7.59
2016-11-04T02:37:45.550Z,7.66
2016-11-04T02:38:45.540Z,7.62
2016-11-04T02:39:45.832Z,7.62
2016-11-04T02:40:45.498Z,7.67
2016-11-04T02:41:45.484Z,7.66
2016-11-04T02:42:45.463Z,7.62
2016-11-04T02:43:45.447Z,7.66
2016-11-04T02:44:45.426Z,7.63
2016-11-04T02:45:45.409Z,7.58
2016-11-04T02:46:45.397Z,7.66
2016-11-04T02:47:45.379Z,7.71
2016-11-04T02:48:45.362Z,7.63
2016-11-04T02:49:45.342Z,7.67
2016-11-04T02:50:45.323Z,7.59
2016-11-04T02:51:45.308Z,7.63
2016-11-04T02:52:45.292Z,7.63
2016-11-04T02:53:45.273Z,7.62
2016-11-04T02:54:45.260Z,7.62
2016-11-04T02:55:45.555Z,7.6
2016-11-04T02:56:45.226Z,7.66
2016-11-04T02:57:45.519Z,7.52
2016-11-04T02:58:45.193Z,7.66
2016-11-04T02:59:45.166Z,7.62
2016-11-04T03:00:45.152Z,7.66
2016-11-04T03:01:45.449Z,7.66
2016-11-04T03:02:45.118Z,7.66
2016-11-04T03:03:45.101Z,7.6
2016-11-04T03:04:45.082Z,7.66
2016-11-04T03:05:45.068Z,7.66
2016-11-04T03:06:45.054Z,7.67
2016-11-04T03:07:45.033Z,7.66
2016-11-04T03:08:45.012Z,7.62
2016-11-04T03:09:44.997Z,7.62
2016-11-04T03:10:44.976Z,7.59
2016-11-04T03:11:44.977Z,7.66
2016-11-04T03:12:44.954Z,7.63
2016-11-04T03:13:44.932Z,7.74
2016-11-04T03:14:45.220Z,7.63
2016-11-04T03:15:45.212Z,7.63
2016-11-04T03:16:44.888Z,7.6
2016-11-04T03:17:45.170Z,7.62
2016-11-04T03:18:44.850Z,7.66
2016-11-04T03:19:44.835Z,7.62
2016-11-04T03:20:44.847Z,7.58
2016-11-04T03:21:44.788Z,7.66
2016-11-04T03:22:45.126Z,7.6
2016-11-04T03:23:44.804Z,7.58
2016-11-04T03:24:44.736Z,7.56
2016-11-04T03:25:44.726Z,7.62
2016-11-04T03:26:44.707Z,7.56
2016-11-04T03:27:44.687Z,7.66
2016-11-04T03:28:44.665Z,7.62
2016-11-04T03:29:45.283Z,7.5
2016-11-04T03:30:45.001Z,7.69
2016-11-04T03:31:44.622Z,7.63
2016-11-04T03:32:44.600Z,7.6
2016-11-04T03:33:45.209Z,7.66
2016-11-04T03:34:44.567Z,7.66
2016-11-04T03:35:44.542Z,7.6
2016-11-04T03:36:44.527Z,7.66
2016-11-04T03:37:44.525Z,7.62
2016-11-04T03:38:44.493Z,7.59
2016-11-04T03:39:44.475Z,7.62
2016-11-04T03:40:44.459Z,7.63
2016-11-04T03:41:44.444Z,7.63
2016-11-04T03:42:44.426Z,7.6
2016-11-04T03:43:44.717Z,7.63
2016-11-04T03:44:44.387Z,7.6
2016-11-04T03:45:44.371Z,7.6
2016-11-04T03:46:44.671Z,7.63
2016-11-04T03:47:44.336Z,7.63
2016-11-04T03:48:44.672Z,7.6
2016-11-04T03:49:44.619Z,7.63
2016-11-04T03:50:44.328Z,7.63
2016-11-04T03:51:44.275Z,7.63
2016-11-04T03:52:44.561Z,7.6
2016-11-04T03:53:44.235Z,7.72
2016-11-04T03:54:44.214Z,7.74
2016-11-04T03:55:44.199Z,7.67
2016-11-04T03:56:44.188Z,7.71
2016-11-04T03:57:44.169Z,7.74
2016-11-04T03:58:44.146Z,7.66
2016-11-04T03:59:44.455Z,7.66
2016-11-04T04:00:44.423Z,7.72
2016-11-04T04:01:44.092Z,7.67
2016-11-04T04:02:44.078Z,7.71
2016-11-04T04:03:44.083Z,7.71
2016-11-04T04:04:44.082Z,7.71
2016-11-04T04:05:44.029Z,7.69
2016-11-04T04:06:44.214Z,7.69
2016-11-04T04:07:43.992Z,7.78
2016-11-04T04:08:43.970Z,7.66
2016-11-04T04:09:43.960Z,7.77
2016-11-04T04:10:43.945Z,7.66
2016-11-04T04:11:43.925Z,7.72
2016-11-04T04:12:43.906Z,7.71
2016-11-04T04:13:43.889Z,7.69
2016-11-04T04:14:43.872Z,7.71
2016-11-04T04:15:44.170Z,7.67
2016-11-04T04:16:43.837Z,7.78
2016-11-04T04:17:43.818Z,7.67
2016-11-04T04:18:43.800Z,7.67
2016-11-04T04:19:43.787Z,7.69
2016-11-04T04:20:43.761Z,7.69
2016-11-04T04:21:43.748Z,7.67
2016-11-04T04:22:44.042Z,7.66
2016-11-04T04:23:43.722Z,7.69
2016-11-04T04:24:43.702Z,7.69
2016-11-04T04:25:43.714Z,7.67
2016-11-04T04:26:43.665Z,7.72
2016-11-04T04:27:43.645Z,7.69
2016-11-04T04:28:43.618Z,7.67
2016-11-04T04:29:43.605Z,7.74
2016-11-04T04:30:43.585Z,7.74
2016-11-04T04:31:43.882Z,7.71
2016-11-04T04:32:43.552Z,7.71
2016-11-04T04:33:43.854Z,7.71
2016-11-04T04:34:43.515Z,7.74
2016-11-04T04:35:43.505Z,7.59
2016-11-04T04:36:43.486Z,7.71
2016-11-04T04:37:43.468Z,7.63
2016-11-04T04:38:43.450Z,7.58
2016-11-04T04:39:43.432Z,7.58
2016-11-04T04:40:43.411Z,7.62
2016-11-04T04:41:43.398Z,7.62
2016-11-04T04:42:43.382Z,7.67
2016-11-04T04:43:43.364Z,7.69
2016-11-04T04:44:43.347Z,7.67
2016-11-04T04:45:43.641Z,7.63
2016-11-04T04:46:43.336Z,7.69
2016-11-04T04:47:43.294Z,7.63
2016-11-04T04:48:43.275Z,7.66
2016-11-04T04:49:43.258Z,7.74
2016-11-04T04:50:43.243Z,7.6
2016-11-04T04:51:43.227Z,7.71
2016-11-04T04:52:43.207Z,7.74
2016-11-04T04:53:43.190Z,7.72
2016-11-04T04:54:43.176Z,7.62
2016-11-04T04:55:43.155Z,7.67
2016-11-04T04:56:43.137Z,7.67
2016-11-04T04:57:43.123Z,7.71
2016-11-04T04:58:43.414Z,7.63
2016-11-04T04:59:43.083Z,7.75
2016-11-04T05:00:43.064Z,7.78
2016-11-04T05:01:43.368Z,7.78
2016-11-04T05:02:43.034Z,7.72
2016-11-04T05:03:43.013Z,7.67
2016-11-04T05:04:43.011Z,7.72
2016-11-04T05:05:42.984Z,7.78
2016-11-04T05:06:42.972Z,7.82
2016-11-04T05:07:42.950Z,7.77
2016-11-04T05:08:42.933Z,7.71
2016-11-04T05:09:43.235Z,7.67
2016-11-04T05:10:42.898Z,7.77
2016-11-04T05:11:43.193Z,7.72
2016-11-04T05:12:42.863Z,7.74
2016-11-04T05:13:42.843Z,7.66
2016-11-04T05:14:42.833Z,7.69
2016-11-04T05:15:42.808Z,7.67
2016-11-04T05:16:42.789Z,7.69
2016-11-04T05:17:42.777Z,7.71
2016-11-04T05:18:42.760Z,7.66
2016-11-04T05:19:42.739Z,7.63
2016-11-04T05:20:42.724Z,7.67
2016-11-04T05:21:42.706Z,7.74
2016-11-04T05:22:42.688Z,7.77
2016-11-04T05:23:42.672Z,7.71
2016-11-04T05:24:42.969Z,7.71
2016-11-04T05:25:42.949Z,7.66
2016-11-04T05:26:42.932Z,7.67
2016-11-04T05:27:42.606Z,7.77
2016-11-04T05:28:42.895Z,7.75
2016-11-04T05:29:42.571Z,7.69
2016-11-04T05:30:42.866Z,7.66
2016-11-04T05:31:42.850Z,7.72
2016-11-04T05:32:42.550Z,7.67
2016-11-04T05:33:42.495Z,7.67
2016-11-04T05:34:42.479Z,7.66
2016-11-04T05:35:42.464Z,7.69
2016-11-04T05:36:42.448Z,7.63
2016-11-04T05:37:42.431Z,7.67
2016-11-04T05:38:42.412Z,7.63
2016-11-04T05:39:42.431Z,7.63
2016-11-04T05:40:42.381Z,7.62
2016-11-04T05:41:42.357Z,7.6
2016-11-04T05:42:42.340Z,7.6
2016-11-04T05:43:42.640Z,7.66
2016-11-04T05:44:42.624Z,7.6
2016-11-04T05:45:42.286Z,7.52
2016-11-04T05:46:42.913Z,7.63
2016-11-04T05:47:42.264Z,7.62
2016-11-04T05:48:42.557Z,7.55
2016-11-04T05:49:42.230Z,7.55
2016-11-04T05:50:42.213Z,7.58
2016-11-04T05:51:42.188Z,7.58
2016-11-04T05:52:42.166Z,7.63
2016-11-04T05:53:42.158Z,7.59
2016-11-04T05:54:42.447Z,7.6
2016-11-04T05:55:42.116Z,7.55
2016-11-04T05:56:42.106Z,7.62
2016-11-04T05:57:42.393Z,7.59
2016-11-04T05:58:42.065Z,7.56
2016-11-04T05:59:42.360Z,7.56
2016-11-04T06:00:42.031Z,7.55
2016-11-04T06:01:42.018Z,7.47
2016-11-04T06:02:42.001Z,7.52
2016-11-04T06:03:41.981Z,7.47
2016-11-04T06:04:41.959Z,7.5
2016-11-04T06:05:42.287Z,7.45
2016-11-04T06:06:42.139Z,7.49
2016-11-04T06:07:41.917Z,7.44
2016-11-04T06:08:41.893Z,7.47
2016-11-04T06:09:41.879Z,7.31
2016-11-04T06:10:41.863Z,7.35
2016-11-04T06:11:41.843Z,7.35
2016-11-04T06:12:41.822Z,7.35
2016-11-04T06:13:41.806Z,7.31
2016-11-04T06:14:41.788Z,7.34
2016-11-04T06:15:42.083Z,7.31
2016-11-04T06:16:41.752Z,7.29
2016-11-04T06:17:41.751Z,7.32
2016-11-04T06:18:41.714Z,7.31
2016-11-04T06:19:41.704Z,7.31
2016-11-04T06:20:41.678Z,7.27
2016-11-04T06:21:41.667Z,7.31
2016-11-04T06:22:41.643Z,7.29
2016-11-04T06:23:41.623Z,7.27
2016-11-04T06:24:41.612Z,7.35
2016-11-04T06:25:41.593Z,7.34
2016-11-04T06:26:41.581Z,7.26
2016-11-04T06:27:41.558Z,7.24
2016-11-04T06:28:41.542Z,7.31
2016-11-04T06:29:41.525Z,7.34
2016-11-04T06:30:41.507Z,7.23
2016-11-04T06:31:41.493Z,7.32
2016-11-04T06:32:41.470Z,7.24
2016-11-04T06:33:41.450Z,7.24
2016-11-04T06:34:41.751Z,7.2
2016-11-04T06:35:41.417Z,7.23
2016-11-04T06:36:41.398Z,7.31
2016-11-04T06:37:41.379Z,7.22
2016-11-04T06:38:41.369Z,7.23
2016-11-04T06:39:41.658Z,7.27
2016-11-04T06:40:41.326Z,7.2
2016-11-04T06:41:41.320Z,7.31
2016-11-04T06:42:41.290Z,7.22
2016-11-04T06:43:41.277Z,7.29
2016-11-04T06:44:41.570Z,7.23
2016-11-04T06:45:41.237Z,7.19
2016-11-04T06:46:41.220Z,7.29
2016-11-04T06:47:41.236Z,7.17
2016-11-04T06:48:41.183Z,7.19
2016-11-04T06:49:41.481Z,7.2
2016-11-04T06:50:41.147Z,7.13
2016-11-04T06:51:41.134Z,7.17
2016-11-04T06:52:41.115Z,7.26
2016-11-04T06:53:41.407Z,7.19
2016-11-04T06:54:41.115Z,7.31
2016-11-04T06:55:41.059Z,7.29
2016-11-04T06:56:41.044Z,7.23
2016-11-04T06:57:41.346Z,7.35
2016-11-04T06:58:41.006Z,7.29
2016-11-04T06:59:40.988Z,7.32
2016-11-04T07:00:40.990Z,7.32
2016-11-04T07:01:41.280Z,7.29
2016-11-04T07:02:40.938Z,7.34
2016-11-04T07:03:40.926Z,7.27
2016-11-04T07:04:40.902Z,7.34
2016-11-04T07:05:41.196Z,7.35
2016-11-04T07:06:40.864Z,7.34
2016-11-04T07:07:40.853Z,7.37
2016-11-04T07:08:40.829Z,7.35
2016-11-04T07:09:40.816Z,7.4
2016-11-04T07:10:40.798Z,7.34
2016-11-04T07:11:40.777Z,7.38
2016-11-04T07:12:41.074Z,7.49
2016-11-04T07:13:40.740Z,7.41
2016-11-04T07:14:40.722Z,7.44
2016-11-04T07:15:41.020Z,7.38
2016-11-04T07:16:40.695Z,7.41
2016-11-04T07:17:40.673Z,7.42
2016-11-04T07:18:40.656Z,7.44
2016-11-04T07:19:40.645Z,7.4
2016-11-04T07:20:40.618Z,7.49
2016-11-04T07:21:40.600Z,7.41
2016-11-04T07:22:40.584Z,7.4
2016-11-04T07:23:40.563Z,7.38
2016-11-04T07:24:40.553Z,7.45
2016-11-04T07:25:40.531Z,7.38
2016-11-04T07:26:40.512Z,7.45
2016-11-04T07:27:40.491Z,7.37
2016-11-04T07:28:40.485Z,7.41
2016-11-04T07:29:40.457Z,7.42
2016-11-04T07:30:40.443Z,7.41
2016-11-04T07:31:40.432Z,7.41
2016-11-04T07:32:40.408Z,7.45
2016-11-04T07:33:40.388Z,7.49
2016-11-04T07:34:40.374Z,7.4
2016-11-04T07:35:40.368Z,7.44
2016-11-04T07:36:40.340Z,7.35
2016-11-04T07:37:40.323Z,7.45
2016-11-04T07:38:40.616Z,7.32
2016-11-04T07:39:40.285Z,7.45
2016-11-04T07:40:40.263Z,7.35
2016-11-04T07:41:40.249Z,7.32
2016-11-04T07:42:40.232Z,7.34
2016-11-04T07:43:40.216Z,7.31
2016-11-04T07:44:40.198Z,7.42
2016-11-04T07:45:40.191Z,7.45
2016-11-04T07:46:40.162Z,7.47
2016-11-04T07:47:40.155Z,7.42
2016-11-04T07:48:40.128Z,7.44
2016-11-04T07:49:40.124Z,7.47
2016-11-04T07:50:40.097Z,7.55
2016-11-04T07:51:40.421Z,7.55
2016-11-04T07:52:40.057Z,7.58
2016-11-04T07:53:40.040Z,7.53
2016-11-04T07:54:40.067Z,7.58
2016-11-04T07:55:40.319Z,7.59
2016-11-04T07:56:40.340Z,7.63
2016-11-04T07:57:39.971Z,7.63
2016-11-04T07:58:39.957Z,7.72
2016-11-04T07:59:40.252Z,7.75
2016-11-04T08:00:39.958Z,7.75
2016-11-04T08:01:39.907Z,7.67
2016-11-04T08:02:39.928Z,7.66
2016-11-04T08:03:40.184Z,7.67
2016-11-04T08:04:39.852Z,7.72
2016-11-04T08:05:39.837Z,7.67
2016-11-04T08:06:40.016Z,7.78
2016-11-04T08:07:39.797Z,7.79
2016-11-04T08:08:39.783Z,7.78
2016-11-04T08:09:39.764Z,7.72
2016-11-04T08:10:39.752Z,7.77
2016-11-04T08:11:39.731Z,7.71
2016-11-04T08:12:39.718Z,7.84
2016-11-04T08:13:39.696Z,7.84
2016-11-04T08:14:39.992Z,7.89
2016-11-04T08:15:39.674Z,7.94
2016-11-04T08:16:39.645Z,8.04
2016-11-04T08:17:39.640Z,8.02
2016-11-04T08:18:39.947Z,8.04
2016-11-04T08:19:39.606Z,8.12
2016-11-04T08:20:39.579Z,8.14
2016-11-04T08:21:39.568Z,8.32
2016-11-04T08:22:39.551Z,8.32
2016-11-04T08:23:39.529Z,8.35
2016-11-04T08:24:39.556Z,8.35
2016-11-04T08:25:39.501Z,8.4
2016-11-04T08:26:39.494Z,8.48
2016-11-04T08:27:39.471Z,8.54
2016-11-04T08:28:39.450Z,8.54
2016-11-04T08:29:39.440Z,8.54
2016-11-04T08:30:39.419Z,8.58
2016-11-04T08:31:39.400Z,8.58
2016-11-04T08:32:39.385Z,8.53
2016-11-04T08:33:39.367Z,8.53
2016-11-04T08:34:39.358Z,8.55
2016-11-04T08:35:39.372Z,8.55
2016-11-04T08:36:39.324Z,8.58
2016-11-04T08:37:39.309Z,8.57
2016-11-04T08:38:39.297Z,8.63
2016-11-04T08:39:39.279Z,8.6
2016-11-04T08:40:39.574Z,8.66
2016-11-04T08:41:39.241Z,8.58
2016-11-04T08:42:39.223Z,8.75
2016-11-04T08:43:39.210Z,8.71
2016-11-04T08:44:39.194Z,8.68
2016-11-04T08:45:39.490Z,8.75
2016-11-04T08:46:39.197Z,8.73
2016-11-04T08:47:39.150Z,8.73
2016-11-04T08:48:39.132Z,8.68
2016-11-04T08:49:39.117Z,8.58
2016-11-04T08:50:39.417Z,8.63
2016-11-04T08:51:39.087Z,8.65
2016-11-04T08:52:39.072Z,8.62
2016-11-04T08:53:39.056Z,8.57
2016-11-04T08:54:39.349Z,8.63
2016-11-04T08:55:39.025Z,8.71
2016-11-04T08:56:39.356Z,8.71
2016-11-04T08:57:38.991Z,8.69
2016-11-04T08:58:39.294Z,8.68
2016-11-04T08:59:38.965Z,8.73
2016-11-04T09:00:38.949Z,8.75
2016-11-04T09:01:39.251Z,8.75
2016-11-04T09:02:38.923Z,8.78
2016-11-04T09:03:38.904Z,8.87
2016-11-04T09:04:39.198Z,8.84
2016-11-04T09:05:38.877Z,8.9
2016-11-04T09:06:38.854Z,8.96
2016-11-04T09:07:38.838Z,8.93
2016-11-04T09:08:38.820Z,8.9
2016-11-04T09:09:38.798Z,9.01
2016-11-04T09:10:38.789Z,9.01
2016-11-04T09:11:38.775Z,8.97
2016-11-04T09:12:38.756Z,9.01
2016-11-04T09:13:38.744Z,8.96
2016-11-04T09:14:38.753Z,8.93
2016-11-04T09:15:38.712Z,8.97
2016-11-04T09:16:38.700Z,9.01
2016-11-04T09:17:38.682Z,9.15
2016-11-04T09:18:38.669Z,9.12
2016-11-04T09:19:38.649Z,9.09
2016-11-04T09:20:38.641Z,9.15
2016-11-04T09:21:38.615Z,9.12
2016-11-04T09:22:38.611Z,9.18
2016-11-04T09:23:38.595Z,9.18
2016-11-04T09:24:38.582Z,9.16
2016-11-04T09:25:38.561Z,9.25
2016-11-04T09:26:38.547Z,9.24
2016-11-04T09:27:38.846Z,9.2
2016-11-04T09:28:38.518Z,9.18
2016-11-04T09:29:38.503Z,9.23
2016-11-04T09:30:38.486Z,9.25
2016-11-04T09:31:38.472Z,9.27
2016-11-04T09:32:38.454Z,9.34
2016-11-04T09:33:38.794Z,9.32
2016-11-04T09:34:38.425Z,9.38
2016-11-04T09:35:38.404Z,9.31
2016-11-04T09:36:39.159Z,9.25
2016-11-04T09:37:38.715Z,9.32
2016-11-04T09:38:38.375Z,9.38
2016-11-04T09:39:38.359Z,9.25
2016-11-04T09:40:38.648Z,9.25
2016-11-04T09:41:38.319Z,9.4
2016-11-04T09:42:38.302Z,9.38
2016-11-04T09:43:38.628Z,9.42
2016-11-04T09:44:38.596Z,9.57
2016-11-04T09:45:38.291Z,9.58
2016-11-04T09:46:38.561Z,9.61
2016-11-04T09:47:38.263Z,9.64
2016-11-04T09:48:38.215Z,9.63
2016-11-04T09:49:38.200Z,9.68
2016-11-04T09:50:38.187Z,9.79
2016-11-04T09:51:38.173Z,9.86
2016-11-04T09:52:38.150Z,9.85
2016-11-04T09:53:38.141Z,9.82
2016-11-04T09:54:38.443Z,10.06
2016-11-04T09:55:38.113Z,10.01
2016-11-04T09:56:38.407Z,10.07
2016-11-04T09:57:38.120Z,10.18
2016-11-04T09:58:38.065Z,10.19
2016-11-04T09:59:38.054Z,10.17
2016-11-04T10:00:38.041Z,10.21
2016-11-04T10:01:38.032Z,10.25
2016-11-04T10:02:38.018Z,10.19
2016-11-04T10:03:38.338Z,10.21
2016-11-04T10:04:37.985Z,10.19
2016-11-04T10:05:37.969Z,10.18
2016-11-04T10:06:38.157Z,10.18
2016-11-04T10:07:38.253Z,10.19
2016-11-04T10:08:37.927Z,10.26
2016-11-04T10:09:37.914Z,10.32
2016-11-04T10:10:37.900Z,10.18
2016-11-04T10:11:38.208Z,10.33
2016-11-04T10:12:37.876Z,10.34
2016-11-04T10:13:37.858Z,10.32
2016-11-04T10:14:37.842Z,10.3
2016-11-04T10:15:37.838Z,10.39
2016-11-04T10:16:37.824Z,10.33
2016-11-04T10:17:38.117Z,10.36
2016-11-04T10:18:38.137Z,10.28
2016-11-04T10:19:38.091Z,10.39
2016-11-04T10:20:37.766Z,10.32
2016-11-04T10:21:37.753Z,10.37
2016-11-04T10:22:37.738Z,10.43
2016-11-04T10:23:37.728Z,10.56
2016-11-04T10:24:37.708Z,10.55
2016-11-04T10:25:37.694Z,10.59
2016-11-04T10:26:37.997Z,10.68
2016-11-04T10:27:37.665Z,10.71
2016-11-04T10:28:37.655Z,10.71
2016-11-04T10:29:37.641Z,10.8
2016-11-04T10:30:37.628Z,10.8
2016-11-04T10:31:37.622Z,10.91
2016-11-04T10:32:37.604Z,10.98
2016-11-04T10:33:37.588Z,10.78
2016-11-04T10:34:37.579Z,11.01
2016-11-04T10:35:37.564Z,11.1
2016-11-04T10:36:37.549Z,11.28
2016-11-04T10:37:37.853Z,11.38
2016-11-04T10:38:37.528Z,11.52
2016-11-04T10:39:37.915Z,11.52
2016-11-04T10:40:37.524Z,11.62
2016-11-04T10:41:37.801Z,11.8
2016-11-04T10:42:37.823Z,12.09
2016-11-04T10:43:37.468Z,12.13
2016-11-04T10:44:37.452Z,12.08
2016-11-04T10:45:37.434Z,11.87
2016-11-04T10:46:37.426Z,11.8
2016-11-04T10:47:37.412Z,11.61
2016-11-04T10:48:37.407Z,11.53
2016-11-04T10:49:37.395Z,11.62
2016-11-04T10:50:37.696Z,11.57
2016-11-04T10:51:37.374Z,11.52
2016-11-04T10:52:37.356Z,11.46
2016-11-04T10:53:37.342Z,11.52
2016-11-04T10:54:37.644Z,11.46
2016-11-04T10:55:37.318Z,11.39
2016-11-04T10:56:37.312Z,11.28
2016-11-04T10:57:37.309Z,11.34
2016-11-04T10:58:37.300Z,11.43
2016-11-04T10:59:37.277Z,11.47
2016-11-04T11:00:37.283Z,11.64
2016-11-04T11:01:37.566Z,11.7
2016-11-04T11:02:37.236Z,11.85
2016-11-04T11:03:37.225Z,11.77
2016-11-04T11:04:37.217Z,11.72
2016-11-04T11:05:37.204Z,11.86
2016-11-04T11:06:37.219Z,11.99
2016-11-04T11:07:37.498Z,12.09
2016-11-04T11:08:37.168Z,12.21
2016-11-04T11:09:37.476Z,12.29
2016-11-04T11:10:37.154Z,12.29
2016-11-04T11:11:37.159Z,12.45
2016-11-04T11:12:37.445Z,12.69
2016-11-04T11:13:37.174Z,12.64
2016-11-04T11:14:37.106Z,12.59
2016-11-04T11:15:37.096Z,12.63
2016-11-04T11:16:37.090Z,12.49
2016-11-04T11:17:37.073Z,12.42
2016-11-04T11:18:37.103Z,12.48
2016-11-04T11:19:37.058Z,12.46
2016-11-04T11:20:37.077Z,12.57
2016-11-04T11:21:37.037Z,12.33
2016-11-04T11:22:37.024Z,12.21
2016-11-04T11:23:37.009Z,12.11
2016-11-04T11:24:37.000Z,12.15
2016-11-04T11:25:36.994Z,11.89
2016-11-04T11:26:36.990Z,11.97
2016-11-04T11:27:36.978Z,12.05
2016-11-04T11:28:36.958Z,11.94
2016-11-04T11:29:36.947Z,11.93
2016-11-04T11:30:36.944Z,11.86
2016-11-04T11:31:36.935Z,11.75
2016-11-04T11:32:36.920Z,11.87
2016-11-04T11:33:36.910Z,11.96
2016-11-04T11:34:36.905Z,11.9
2016-11-04T11:35:36.886Z,12.06
2016-11-04T11:36:36.882Z,12.06
2016-11-04T11:37:36.862Z,11.9
2016-11-04T11:38:36.864Z,11.97
2016-11-04T11:39:36.851Z,12.19
2016-11-04T11:40:36.839Z,12.45
2016-11-04T11:41:36.827Z,12.37
2016-11-04T11:42:36.817Z,12.51
2016-11-04T11:43:36.806Z,12.67
2016-11-04T11:44:36.797Z,12.77
2016-11-04T11:45:36.782Z,12.79
2016-11-04T11:46:37.086Z,12.78
2016-11-04T11:47:36.760Z,12.67
2016-11-04T11:48:36.753Z,12.54
2016-11-04T11:49:36.743Z,12.63
2016-11-04T11:50:36.735Z,12.77
2016-11-04T11:51:36.730Z,12.82
2016-11-04T11:52:37.023Z,12.78
2016-11-04T11:53:36.703Z,12.74
2016-11-04T11:54:36.692Z,12.78
2016-11-04T11:55:37.002Z,12.79
2016-11-04T11:56:36.714Z,12.77
2016-11-04T11:57:36.676Z,12.75
2016-11-04T11:58:36.658Z,12.75
2016-11-04T11:59:36.650Z,12.84
2016-11-04T12:00:36.638Z,12.82
2016-11-04T12:01:36.940Z,12.56
2016-11-04T12:02:36.934Z,12.41
2016-11-04T12:03:36.605Z,12.49
2016-11-04T12:04:36.596Z,12.38
2016-11-04T12:05:36.905Z,12.42
2016-11-04T12:06:36.786Z,12.44
2016-11-04T12:07:36.882Z,12.52
2016-11-04T12:08:36.875Z,12.48
2016-11-04T12:09:36.864Z,12.52
2016-11-04T12:10:36.537Z,12.67
2016-11-04T12:11:36.535Z,12.52
2016-11-04T12:12:36.516Z,12.46
2016-11-04T12:13:36.510Z,12.6
2016-11-04T12:14:36.810Z,12.57
2016-11-04T12:15:36.494Z,12.71
2016-11-04T12:16:36.479Z,12.77
2016-11-04T12:17:36.783Z,12.64
2016-11-04T12:18:36.456Z,12.66
2016-11-04T12:19:36.483Z,12.63
2016-11-04T12:20:36.436Z,12.49
2016-11-04T12:21:36.424Z,12.6
2016-11-04T12:22:36.735Z,12.7
2016-11-04T12:23:36.409Z,12.7
2016-11-04T12:24:36.411Z,12.82
2016-11-04T12:25:36.391Z,12.99
2016-11-04T12:26:36.375Z,13.04
2016-11-04T12:27:36.367Z,13.2
2016-11-04T12:28:36.693Z,13.24
2016-11-04T12:29:36.348Z,13.36
2016-11-04T12:30:36.340Z,13.3
2016-11-04T12:31:36.333Z,13.38
2016-11-04T12:32:36.637Z,13.36
2016-11-04T12:33:36.316Z,13.33
2016-11-04T12:34:36.618Z,13.33
2016-11-04T12:35:36.300Z,13.07
2016-11-04T12:36:36.291Z,13.06
2016-11-04T12:37:36.272Z,13.07
2016-11-04T12:38:36.256Z,13.04
2016-11-04T12:39:36.252Z,13.21
2016-11-04T12:40:36.244Z,13.37
2016-11-04T12:41:36.258Z,13.38
2016-11-04T12:42:36.229Z,13.65
2016-11-04T12:43:36.528Z,13.58
2016-11-04T12:44:36.208Z,13.58
2016-11-04T12:45:36.515Z,13.41
2016-11-04T12:46:36.501Z,13.46
2016-11-04T12:47:36.172Z,13.3
2016-11-04T12:48:36.170Z,13.29
2016-11-04T12:49:36.470Z,13.29
2016-11-04T12:50:36.149Z,13.09
2016-11-04T12:51:36.140Z,13.17
2016-11-04T12:52:36.158Z,13.11
2016-11-04T12:53:36.446Z,13.27
2016-11-04T12:54:36.113Z,13.51
2016-11-04T12:55:36.465Z,13.79
2016-11-04T12:56:36.110Z,13.84
2016-11-04T12:57:36.087Z,13.81
2016-11-04T12:58:36.074Z,14.04
2016-11-04T12:59:36.103Z,14.09
2016-11-04T13:00:36.054Z,13.95
2016-11-04T13:01:36.049Z,13.83
2016-11-04T13:02:36.039Z,13.62
2016-11-04T13:03:36.030Z,13.59
2016-11-04T13:04:36.020Z,13.61
2016-11-04T13:05:36.013Z,13.47
2016-11-04T13:06:36.626Z,13.44
2016-11-04T13:07:35.995Z,13.56
2016-11-04T13:08:35.983Z,13.47
2016-11-04T13:09:35.986Z,13.21
2016-11-04T13:10:35.965Z,13.43
2016-11-04T13:11:35.954Z,13.55
2016-11-04T13:12:35.987Z,13.33
2016-11-04T13:13:35.935Z,13.46
2016-11-04T13:14:35.932Z,13.44